< < Back
Terminal Aerodrome Forecast


Current Version              Previous Versions:   1  2  3  4  5  6  7  8  9  

Terminal Aerodrome Forecast

681
FTUS44 KHUN 310520
TAFHSV
TAF
KHSV 310520Z 3106/0106 VRB03KT P6SM FEW070 OVC120
     FM311500 34007KT P6SM BKN060 OVC100
     FM311900 33015G25KT P6SM BKN040
     FM010100 34010KT P6SM SKC=



Latest METAR

250
SAUS80 KWBC 311500 RRB
MTRHSV
METAR KHSV 311453Z 00000KT 10SM BKN060 BKN075 12/09 A3001 RMK AO2 SLP161
60000 T01220089 52009


USA.gov is the U.S. government's official web portal to all federal, state and local government web resources and services.